Time;durP1;ratioP1;P1;durP2;ratioP2;P2;SDS_P1;SDS_P2;PMS_P1;PMS_P2;Temp;Humidity;BMP_temperature;BMP_pressure;BME280_temperature;BME280_humidity;BME280_pressure;Samples;Min_cycle;Max_cycle;Signal;HPM_P1;HPM_P2
2022/01/19 00:01:08;;;;;;;9.97;4.80;;;;;;;-0.19;100.00;96013.78;5021280;28;20682;-75
2022/01/19 00:03:55;;;;;;;10.77;4.43;;;;;;;-0.26;100.00;95994.13;5051201;28;20620;-73
2022/01/19 00:06:41;;;;;;;6.37;4.50;;;;;;;-0.19;100.00;95994.25;5056284;28;20290;-74
2022/01/19 00:09:27;;;;;;;11.43;4.10;;;;;;;-0.21;100.00;95975.03;5057376;28;20215;-73
2022/01/19 00:12:13;;;;;;;8.67;3.80;;;;;;;-0.21;100.00;95957.03;5047096;28;20244;-74
2022/01/19 00:14:59;;;;;;;7.73;4.23;;;;;;;-0.26;100.00;95968.06;5051495;28;20197;-73
2022/01/19 00:17:49;;;;;;;9.47;3.77;;;;;;;-0.36;100.00;95954.50;5033518;28;20303;-73
2022/01/19 00:20:35;;;;;;;9.00;4.17;;;;;;;-0.39;100.00;95947.16;5065016;28;20205;-73
2022/01/19 00:23:22;;;;;;;9.17;4.00;;;;;;;-0.43;100.00;95927.56;5042570;28;20539;-73
2022/01/19 00:26:08;;;;;;;9.47;4.00;;;;;;;-0.48;100.00;95950.09;5041997;28;20201;-74
2022/01/19 00:28:55;;;;;;;13.37;3.83;;;;;;;-0.53;100.00;95946.94;5070752;28;20288;-73
2022/01/19 00:31:40;;;;;;;11.80;4.60;;;;;;;-0.47;100.00;95945.50;5040508;28;20206;-73
2022/01/19 00:34:28;;;;;;;11.97;4.10;;;;;;;-0.54;100.00;95946.16;5060840;28;20217;-73
2022/01/19 00:37:14;;;;;;;11.30;4.40;;;;;;;-0.56;100.00;95934.25;5059700;28;20240;-73
2022/01/19 00:40:00;;;;;;;11.97;3.90;;;;;;;-0.57;100.00;95935.38;5056886;28;20687;-73
2022/01/19 00:42:47;;;;;;;12.17;4.40;;;;;;;-0.43;100.00;95939.06;5067746;28;20190;-73
2022/01/19 00:45:33;;;;;;;9.83;4.07;;;;;;;-0.45;100.00;95929.81;5055952;28;20226;-73
2022/01/19 00:48:19;;;;;;;11.47;5.00;;;;;;;-0.49;100.00;95926.28;5060144;28;20222;-73
2022/01/19 00:51:06;;;;;;;7.73;4.83;;;;;;;-0.46;100.00;95926.34;5044191;28;20722;-73
2022/01/19 00:53:52;;;;;;;10.37;4.30;;;;;;;-0.45;100.00;95927.13;5054090;28;20264;-74
2022/01/19 00:56:39;;;;;;;10.83;4.93;;;;;;;-0.49;100.00;95919.03;5044944;28;20251;-73
2022/01/19 00:59:25;;;;;;;10.93;5.10;;;;;;;-0.60;100.00;95909.28;5028741;28;20281;-73
2022/01/19 01:02:11;;;;;;;9.73;5.00;;;;;;;-0.64;100.00;95905.75;5031187;28;20743;-74
2022/01/19 01:04:57;;;;;;;10.83;4.90;;;;;;;-0.75;100.00;95900.25;5060636;28;20226;-74
2022/01/19 01:07:43;;;;;;;9.93;5.53;;;;;;;-0.69;100.00;95893.44;5049657;28;20248;-74
2022/01/19 01:10:30;;;;;;;14.73;6.03;;;;;;;-0.66;100.00;95892.72;5047993;28;20684;-74
2022/01/19 01:16:34;;;;;;;7.53;4.67;;;;;;;-0.62;100.00;95876.69;5007628;28;20206;-74
2022/01/19 01:19:20;;;;;;;10.50;5.20;;;;;;;-0.68;100.00;95859.34;5042505;28;20190;-74
2022/01/19 01:22:06;;;;;;;9.97;5.50;;;;;;;-0.59;100.00;95851.81;5033182;28;20187;-74
2022/01/19 01:24:52;;;;;;;9.23;4.87;;;;;;;-0.61;100.00;95854.09;5043860;28;20283;-74
2022/01/19 01:27:39;;;;;;;8.40;4.77;;;;;;;-0.58;100.00;95830.00;5021227;28;20225;-74
2022/01/19 01:30:25;;;;;;;9.63;4.80;;;;;;;-0.52;100.00;95833.13;5037246;28;20675;-74
2022/01/19 01:33:12;;;;;;;9.40;4.90;;;;;;;-0.57;100.00;95836.13;5028606;28;20234;-74
2022/01/19 01:35:58;;;;;;;13.70;4.90;;;;;;;-0.75;100.00;95849.31;5059521;28;20271;-73
2022/01/19 01:38:44;;;;;;;10.37;4.57;;;;;;;-0.67;100.00;95850.16;5044126;28;20746;-73
2022/01/19 01:41:31;;;;;;;9.70;4.50;;;;;;;-0.78;100.00;95851.94;5043826;28;20201;-74
2022/01/19 01:44:33;;;;;;;9.27;4.80;;;;;;;-0.72;100.00;95845.91;5041997;28;20205;-73
2022/01/19 01:47:20;;;;;;;12.80;4.73;;;;;;;-0.83;100.00;95831.56;5036773;28;20202;-73
2022/01/19 01:56:07;;;;;;;13.87;5.50;;;;;;;-0.77;100.00;95824.75;5043295;28;20623;-74
2022/01/19 01:58:53;;;;;;;11.30;4.87;;;;;;;-0.70;100.00;95816.81;5023547;28;20211;-74
2022/01/19 02:02:07;;;;;;;12.00;5.33;;;;;;;-0.65;100.00;95802.31;5050291;28;20194;-74
2022/01/19 02:04:54;;;;;;;13.37;5.30;;;;;;;-0.66;100.00;95800.78;5048374;28;20260;-74
2022/01/19 02:22:19;;;;;;;9.80;5.00;;;;;;;-1.20;100.00;95771.66;5053542;28;20193;-74
2022/01/19 02:25:06;;;;;;;8.07;4.77;;;;;;;-0.94;100.00;95777.00;5027058;28;20285;-74
2022/01/19 02:40:14;;;;;;;12.07;5.17;;;;;;;-1.29;100.00;95749.72;5064299;28;20229;-74
2022/01/19 02:51:58;;;;;;;13.63;5.83;;;;;;;-1.35;100.00;95745.78;5057115;28;20198;-73
2022/01/19 02:54:48;;;;;;;11.07;6.10;;;;;;;-1.09;100.00;95742.31;5033907;28;20575;-74
2022/01/19 02:57:36;;;;;;;11.47;5.80;;;;;;;-1.13;100.00;95731.56;5044225;28;20222;-74
2022/01/19 03:08:43;;;;;;;15.03;6.07;;;;;;;-1.01;100.00;95722.53;5052924;28;20747;-74
2022/01/19 03:09:37;;;;;;;12.60;6.77;;;;;;;-1.09;100.00;95731.59;5045183;28;20226;-74
2022/01/19 03:12:23;;;;;;;10.33;5.50;;;;;;;-1.23;100.00;95732.19;5040676;28;20206;-74
2022/01/19 03:15:13;;;;;;;14.53;6.30;;;;;;;-1.46;100.00;95734.91;5022688;28;20663;-74
2022/01/19 03:18:11;;;;;;;9.50;5.47;;;;;;;-1.64;100.00;95741.13;5040249;28;20210;-74
2022/01/19 03:20:57;;;;;;;11.93;5.47;;;;;;;-1.70;100.00;95742.56;5044914;28;20277;-74
2022/01/19 03:23:44;;;;;;;14.33;5.87;;;;;;;-1.70;100.00;95753.25;5058705;28;20202;-74
2022/01/19 03:26:35;;;;;;;8.43;5.23;;;;;;;-1.79;100.00;95742.00;5051620;28;20268;-74
2022/01/19 03:29:44;;;;;;;8.97;4.93;;;;;;;-1.74;100.00;95741.72;5041100;28;20222;-74
2022/01/19 03:32:30;;;;;;;10.70;6.03;;;;;;;-1.86;100.00;95737.31;5045317;28;20251;-74
2022/01/19 03:35:16;;;;;;;8.73;5.40;;;;;;;-1.79;100.00;95739.34;5022458;28;20204;-73
2022/01/19 03:38:12;;;;;;;11.60;5.97;;;;;;;-1.47;100.00;95745.97;5034108;28;20217;-73
2022/01/19 03:40:58;;;;;;;14.20;6.23;;;;;;;-1.43;100.00;95734.19;5041198;28;20206;-73
2022/01/19 03:43:44;;;;;;;8.07;5.33;;;;;;;-1.47;100.00;95751.34;5013672;28;20281;-74
2022/01/19 03:46:42;;;;;;;9.67;6.30;;;;;;;-1.14;100.00;95732.69;5034734;28;20255;-74
2022/01/19 03:49:33;;;;;;;11.07;7.43;;;;;;;-0.94;100.00;95731.44;5033244;28;20223;-74
2022/01/19 03:52:19;;;;;;;11.63;5.77;;;;;;;-1.05;100.00;95743.16;5017649;28;20212;-73
2022/01/19 03:55:06;;;;;;;14.27;7.00;;;;;;;-0.98;100.00;95732.50;5038938;28;20217;-73
2022/01/19 03:57:52;;;;;;;11.87;7.07;;;;;;;-1.15;100.00;95746.47;5043623;28;20329;-74
2022/01/19 04:00:42;;;;;;;11.40;7.10;;;;;;;-1.19;100.00;95742.94;5024824;28;20732;-74
2022/01/19 04:04:29;;;;;;;10.30;6.93;;;;;;;-1.04;100.00;95726.72;5035981;28;20211;-74
2022/01/19 04:09:44;;;;;;;17.10;7.90;;;;;;;-0.65;100.00;95725.31;5047356;28;20232;-74
2022/01/19 04:15:36;;;;;;;16.93;8.73;;;;;;;-0.65;100.00;95721.84;5000021;28;20628;-74
2022/01/19 04:18:22;;;;;;;15.07;8.47;;;;;;;-0.77;100.00;95711.34;5042764;28;20363;-74
2022/01/19 04:21:08;;;;;;;15.97;8.50;;;;;;;-0.77;100.00;95704.09;5039206;28;20281;-74
2022/01/19 04:23:56;;;;;;;14.60;8.83;;;;;;;-0.51;100.00;95722.75;5041205;28;20217;-74
2022/01/19 04:26:43;;;;;;;17.63;10.47;;;;;;;-0.25;100.00;95738.78;5031217;28;20213;-74
2022/01/19 04:29:31;;;;;;;13.23;8.87;;;;;;;-0.60;100.00;95730.34;5049683;28;20223;-74
2022/01/19 04:32:22;;;;;;;20.97;9.40;;;;;;;-0.69;100.00;95745.16;5045235;28;20190;-74
2022/01/19 04:35:10;;;;;;;16.30;10.53;;;;;;;-0.81;100.00;95721.25;5036395;28;20662;-74
2022/01/19 05:02:01;;;;;;;15.67;10.90;;;;;;;-0.32;100.00;95717.25;5051649;28;20303;-74
2022/01/19 05:08:22;;;;;;;19.30;11.70;;;;;;;-0.41;100.00;95711.38;5061485;28;20289;-74
2022/01/19 05:14:04;;;;;;;18.93;10.73;;;;;;;-0.24;100.00;95704.69;5037334;28;20676;-75
2022/01/19 05:16:50;;;;;;;15.50;11.43;;;;;;;-0.48;100.00;95703.28;5046897;28;20259;-74
2022/01/19 05:19:37;;;;;;;17.77;11.57;;;;;;;-0.50;100.00;95700.19;5045196;28;20197;-74
2022/01/19 05:22:23;;;;;;;17.43;11.77;;;;;;;-0.36;100.00;95704.94;5036780;28;20194;-74
2022/01/19 05:25:20;;;;;;;16.73;11.33;;;;;;;-0.26;100.00;95697.00;5033426;28;20667;-75
2022/01/19 05:28:11;;;;;;;18.57;11.80;;;;;;;-0.16;100.00;95711.66;5047521;28;20232;-74
2022/01/19 05:30:57;;;;;;;16.63;11.83;;;;;;;-0.43;100.00;95692.22;5030397;28;20227;-74
2022/01/19 05:33:43;;;;;;;18.07;11.87;;;;;;;-0.39;100.00;95679.59;5049476;28;20278;-75
2022/01/19 05:36:29;;;;;;;17.73;11.43;;;;;;;-0.33;100.00;95680.81;5047543;28;20200;-74
2022/01/19 05:39:37;;;;;;;18.80;12.57;;;;;;;-0.15;100.00;95681.75;5034983;28;20209;-74
2022/01/19 05:42:26;;;;;;;17.87;11.87;;;;;;;-0.35;100.00;95668.91;5061088;28;20194;-74
2022/01/19 05:45:14;;;;;;;18.23;12.33;;;;;;;-0.37;100.00;95700.69;5034163;28;20202;-74
2022/01/19 05:48:02;;;;;;;18.03;12.20;;;;;;;-0.24;100.00;95681.28;5036029;28;20245;-75
2022/01/19 05:50:50;;;;;;;19.83;11.50;;;;;;;-0.31;100.00;95677.75;5070138;28;20360;-75
2022/01/19 05:53:43;;;;;;;16.70;11.40;;;;;;;-0.33;100.00;95664.72;5022889;28;20225;-75
2022/01/19 05:56:30;;;;;;;17.40;12.20;;;;;;;-0.06;100.00;95668.81;5040109;28;20185;-75
2022/01/19 05:59:26;;;;;;;19.70;12.30;;;;;;;-0.28;100.00;95672.44;5049365;28;20243;-74
2022/01/19 06:02:12;;;;;;;19.03;11.80;;;;;;;-0.09;100.00;95658.03;5055678;28;20186;-74
2022/01/19 06:04:58;;;;;;;18.97;12.70;;;;;;;-0.09;100.00;95653.44;5040984;28;21158;-74
2022/01/19 06:08:11;;;;;;;17.33;12.73;;;;;;;-0.08;100.00;95654.97;5027184;28;20237;-75
2022/01/19 06:11:02;;;;;;;17.90;12.83;;;;;;;-0.25;100.00;95660.97;5030906;28;20225;-75
2022/01/19 06:13:48;;;;;;;18.37;12.77;;;;;;;-0.13;100.00;95676.00;5068512;28;20194;-75
2022/01/19 06:16:39;;;;;;;21.50;14.00;;;;;;;-0.40;100.00;95661.19;5052466;28;20664;-75
2022/01/19 06:19:26;;;;;;;16.73;11.63;;;;;;;-0.29;100.00;95654.78;5059891;28;20200;-75
2022/01/19 06:22:12;;;;;;;17.60;12.93;;;;;;;-0.29;100.00;95657.47;5057023;28;20198;-75
2022/01/19 06:24:58;;;;;;;20.33;13.60;;;;;;;-0.10;100.00;95654.56;5056318;28;20202;-75
2022/01/19 06:27:45;;;;;;;16.83;12.20;;;;;;;-0.42;100.00;95652.72;5042374;28;20736;-75
2022/01/19 06:30:31;;;;;;;19.57;13.27;;;;;;;-0.14;100.00;95653.75;5038219;28;20616;-75
2022/01/19 06:33:17;;;;;;;20.27;13.13;;;;;;;-0.07;100.00;95648.44;5039046;28;20487;-75
2022/01/19 06:36:04;;;;;;;19.70;14.23;;;;;;;-0.19;100.00;95640.69;5028344;28;20197;-75
2022/01/19 06:38:55;;;;;;;22.27;14.90;;;;;;;-0.44;100.00;95618.22;5026162;28;20214;-75
2022/01/19 06:41:46;;;;;;;19.73;13.27;;;;;;;-0.18;100.00;95639.56;5031713;28;20197;-75
2022/01/19 06:44:32;;;;;;;16.27;13.20;;;;;;;-0.05;100.00;95637.34;5034557;28;20210;-74
2022/01/19 06:47:18;;;;;;;17.60;12.93;;;;;;;-0.29;100.00;95630.63;5031877;28;20687;-74
2022/01/19 06:50:06;;;;;;;19.73;13.50;;;;;;;-0.53;100.00;95630.41;5041318;28;20194;-74
2022/01/19 06:52:55;;;;;;;17.73;13.07;;;;;;;-0.44;100.00;95630.88;5020155;28;20218;-75
2022/01/19 06:55:41;;;;;;;18.70;13.07;;;;;;;-0.51;100.00;95612.03;5043847;28;20200;-74
2022/01/19 06:58:28;;;;;;;20.47;13.93;;;;;;;-0.54;100.00;95624.25;5042023;28;20686;-74
2022/01/19 07:01:33;;;;;;;21.00;13.97;;;;;;;-0.52;100.00;95616.63;5043903;28;20225;-74
2022/01/19 07:04:29;;;;;;;17.73;12.63;;;;;;;-0.77;100.00;95622.84;5048183;28;20190;-74
2022/01/19 07:07:19;;;;;;;20.90;14.00;;;;;;;-0.78;100.00;95611.34;5032831;28;20689;-74
2022/01/19 07:10:15;;;;;;;24.20;14.30;;;;;;;-0.89;100.00;95615.06;5053139;28;20193;-74
2022/01/19 07:13:03;;;;;;;21.77;13.73;;;;;;;-0.90;100.00;95621.56;5057857;28;20202;-74
2022/01/19 07:15:49;;;;;;;17.70;13.93;;;;;;;-0.91;100.00;95604.69;5037793;28;20207;-74
2022/01/19 07:18:34;;;;;;;19.97;12.93;;;;;;;-1.08;100.00;95631.28;5050216;28;20217;-74
2022/01/19 07:21:21;;;;;;;18.90;12.60;;;;;;;-1.02;100.00;95619.91;5045252;28;20210;-74
2022/01/19 07:24:15;;;;;;;17.73;13.50;;;;;;;-0.96;100.00;95610.38;5029392;28;20631;-74
2022/01/19 07:27:01;;;;;;;21.07;15.27;;;;;;;-0.75;100.00;95607.97;5055372;28;20743;-74
2022/01/19 07:29:48;;;;;;;21.03;14.27;;;;;;;-0.75;100.00;95596.44;5020303;28;20218;-74
2022/01/19 07:32:35;;;;;;;21.63;14.00;;;;;;;-0.50;100.00;95598.25;5017955;28;20227;-74
2022/01/19 07:35:22;;;;;;;20.23;14.57;;;;;;;-0.40;100.00;95605.63;5030307;28;20209;-74
2022/01/19 07:38:11;;;;;;;17.90;14.40;;;;;;;-0.49;100.00;95591.72;5053222;28;20293;-74
2022/01/19 07:40:57;;;;;;;17.73;13.10;;;;;;;-0.43;100.00;95590.25;5038020;28;20217;-74
2022/01/19 07:43:43;;;;;;;24.97;14.07;;;;;;;-0.17;100.00;95582.03;5025635;28;20248;-74
2022/01/19 07:46:29;;;;;;;18.93;14.43;;;;;;;-0.36;100.00;95586.88;5052674;28;20195;-74
2022/01/19 07:49:41;;;;;;;20.47;14.27;;;;;;;-0.19;100.00;95576.25;5060082;28;20229;-74
2022/01/19 07:52:42;;;;;;;17.77;13.83;;;;;;;-0.34;100.00;95568.50;5057800;28;20247;-74
2022/01/19 07:55:53;;;;;;;18.83;13.73;;;;;;;-0.07;100.00;95584.03;5043012;28;20199;-74
2022/01/19 07:59:03;;;;;;;20.03;14.07;;;;;;;0.11;100.00;95581.47;5042560;28;20275;-74
2022/01/19 08:02:05;;;;;;;21.63;15.00;;;;;;;-0.02;100.00;95591.72;5022717;28;20193;-75
2022/01/19 08:05:12;;;;;;;22.50;14.63;;;;;;;-0.09;100.00;95588.25;5031188;28;20211;-74
2022/01/19 08:07:58;;;;;;;18.50;14.20;;;;;;;0.19;100.00;95590.38;5034649;28;20725;-75
2022/01/19 08:10:45;;;;;;;19.07;14.57;;;;;;;0.26;100.00;95601.91;5047363;28;20286;-75
2022/01/19 08:13:31;;;;;;;17.07;13.00;;;;;;;0.13;100.00;95600.69;5048548;28;20197;-75
2022/01/19 08:16:19;;;;;;;19.87;14.57;;;;;;;-0.06;100.00;95590.16;5036627;28;20191;-75
2022/01/19 08:19:08;;;;;;;21.37;13.93;;;;;;;0.03;100.00;95585.25;5027453;28;20294;-75
2022/01/19 08:21:54;;;;;;;19.63;14.17;;;;;;;0.14;100.00;95577.28;5038956;28;20659;-74
2022/01/19 08:24:40;;;;;;;17.43;12.87;;;;;;;-0.02;100.00;95570.25;5025678;28;20201;-75
2022/01/19 08:27:26;;;;;;;17.80;13.57;;;;;;;0.09;100.00;95589.13;5037224;28;20282;-74
2022/01/19 08:30:17;;;;;;;17.10;13.70;;;;;;;0.04;100.00;95581.41;5037170;28;20195;-75
2022/01/19 08:33:03;;;;;;;19.03;13.03;;;;;;;0.17;100.00;95585.34;5036997;28;20202;-75
2022/01/19 08:35:57;;;;;;;15.40;11.73;;;;;;;0.14;100.00;95569.22;5019158;28;20199;-75
2022/01/19 08:39:07;;;;;;;16.93;12.03;;;;;;;0.23;100.00;95573.13;5044922;28;20220;-75
2022/01/19 08:41:56;;;;;;;15.63;12.77;;;;;;;0.29;100.00;95579.66;5034713;28;20194;-75
2022/01/19 08:44:53;;;;;;;20.13;13.67;;;;;;;0.39;100.00;95562.09;5056821;28;20260;-75
2022/01/19 08:47:42;;;;;;;17.13;12.13;;;;;;;0.54;100.00;95569.84;5050930;28;20221;-75
2022/01/19 08:50:40;;;;;;;17.80;13.20;;;;;;;0.72;100.00;95559.16;5048037;28;20341;-75
2022/01/19 08:53:37;;;;;;;16.60;12.23;;;;;;;1.03;100.00;95542.38;5044507;28;20198;-75
2022/01/19 08:56:55;;;;;;;20.10;13.57;;;;;;;1.10;100.00;95556.59;5046740;28;20197;-75
2022/01/19 08:59:41;;;;;;;18.23;13.10;;;;;;;1.11;100.00;95546.63;5056826;28;20267;-74
2022/01/19 09:02:27;;;;;;;17.40;11.57;;;;;;;0.84;100.00;95538.09;5062339;28;20639;-75
2022/01/19 09:05:16;;;;;;;17.07;11.07;;;;;;;0.60;100.00;95546.84;5032267;28;20278;-75
2022/01/19 09:08:02;;;;;;;15.30;11.50;;;;;;;0.62;100.00;95541.06;5043590;28;20217;-75
2022/01/19 09:10:50;;;;;;;15.87;11.27;;;;;;;0.49;100.00;95545.25;5046942;28;20212;-75
2022/01/19 09:13:39;;;;;;;20.37;11.87;;;;;;;0.50;100.00;95552.16;5050177;28;20274;-75
2022/01/19 09:16:25;;;;;;;16.83;12.67;;;;;;;0.42;100.00;95531.78;5051331;28;20598;-75
2022/01/19 09:19:12;;;;;;;16.40;11.67;;;;;;;0.08;100.00;95536.59;5017682;28;20780;-75
2022/01/19 09:21:58;;;;;;;19.47;11.70;;;;;;;0.15;100.00;95547.38;5003459;28;20186;-74
2022/01/19 09:24:44;;;;;;;17.20;12.37;;;;;;;0.11;100.00;95538.50;5032534;28;20274;-75
2022/01/19 09:27:30;;;;;;;16.43;12.10;;;;;;;0.07;100.00;95539.66;5050686;28;20605;-75
2022/01/19 09:30:21;;;;;;;18.07;12.40;;;;;;;0.57;100.00;95541.44;5023058;28;20220;-75
2022/01/19 09:33:11;;;;;;;16.27;11.17;;;;;;;0.55;100.00;95538.34;5034126;28;20200;-75
2022/01/19 09:38:44;;;;;;;19.60;12.13;;;;;;;0.50;100.00;95544.88;5061592;28;20216;-75
2022/01/19 09:41:30;;;;;;;17.33;12.53;;;;;;;0.57;100.00;95542.22;5050203;28;20194;-75
2022/01/19 09:44:17;;;;;;;16.80;11.77;;;;;;;1.07;100.00;95522.41;5050833;28;20195;-75
2022/01/19 09:47:04;;;;;;;26.57;12.87;;;;;;;1.26;100.00;95525.94;5050387;28;20290;-75
2022/01/19 09:49:50;;;;;;;22.63;12.37;;;;;;;1.23;100.00;95535.50;5037091;28;20221;-75
2022/01/19 09:52:38;;;;;;;12.30;10.03;;;;;;;0.85;100.00;95520.81;5026663;28;20191;-75
2022/01/19 09:55:24;;;;;;;15.07;10.90;;;;;;;0.54;100.00;95518.03;5029684;28;20183;-74
2022/01/19 09:58:10;;;;;;;15.00;11.13;;;;;;;0.77;100.00;95505.03;5031489;28;20211;-75
2022/01/19 10:00:57;;;;;;;13.47;10.53;;;;;;;0.88;100.00;95511.97;5016883;28;20199;-75
2022/01/19 10:03:44;;;;;;;19.20;12.13;;;;;;;0.99;100.00;95499.34;5028681;28;20212;-75
2022/01/19 10:06:30;;;;;;;17.17;12.33;;;;;;;1.16;100.00;95495.16;5054545;28;20677;-75
2022/01/19 10:09:25;;;;;;;18.67;12.33;;;;;;;1.19;100.00;95491.69;5062142;28;20218;-75
2022/01/19 10:18:10;;;;;;;13.63;9.93;;;;;;;1.10;100.00;95489.38;5057285;28;20213;-75
2022/01/19 10:21:13;;;;;;;14.37;10.57;;;;;;;1.38;100.00;95475.19;5062889;28;20219;-75
2022/01/19 10:24:00;;;;;;;15.00;10.07;;;;;;;1.49;100.00;95469.81;5040105;28;20277;-75
2022/01/19 10:26:46;;;;;;;16.13;11.13;;;;;;;1.66;100.00;95444.81;5055505;28;20195;-75
2022/01/19 10:29:32;;;;;;;14.33;11.17;;;;;;;1.56;100.00;95459.78;5043302;28;20281;-75
2022/01/19 10:32:25;;;;;;;12.90;9.87;;;;;;;1.15;100.00;95454.03;5054589;28;20277;-75
2022/01/19 10:35:32;;;;;;;14.17;10.60;;;;;;;1.22;100.00;95454.03;5039687;28;20206;-74
2022/01/19 10:38:25;;;;;;;13.13;9.00;;;;;;;1.03;100.00;95443.66;5053059;28;20664;-74
2022/01/19 10:41:12;;;;;;;13.17;9.70;;;;;;;1.12;100.00;95430.59;5051207;28;20212;-74
2022/01/19 10:43:58;;;;;;;11.70;8.73;;;;;;;1.33;100.00;95443.28;5052981;28;20606;-74
2022/01/19 10:46:45;;;;;;;13.10;8.90;;;;;;;1.53;100.00;95433.66;5063601;28;20193;-74
2022/01/19 10:49:54;;;;;;;10.93;8.77;;;;;;;1.50;100.00;95430.97;5057817;28;20217;-74
2022/01/19 10:52:43;;;;;;;9.40;7.73;;;;;;;1.69;100.00;95431.34;5057630;28;20663;-74
2022/01/19 10:55:39;;;;;;;9.27;7.50;;;;;;;1.72;100.00;95427.09;5073099;28;20619;-74
2022/01/19 10:58:26;;;;;;;10.90;6.77;;;;;;;1.79;100.00;95419.78;5073244;28;20626;-74
2022/01/19 11:01:12;;;;;;;10.90;7.07;;;;;;;1.93;100.00;95417.06;5074536;28;20188;-74
2022/01/19 11:04:21;;;;;;;9.50;7.23;;;;;;;2.17;100.00;95408.13;5058749;28;20260;-74
2022/01/19 11:07:11;;;;;;;8.30;6.23;;;;;;;2.13;100.00;95402.00;5073548;28;20185;-74
2022/01/19 11:13:02;;;;;;;9.47;7.13;;;;;;;2.22;100.00;95390.78;5052346;28;20679;-75
2022/01/19 11:15:48;;;;;;;9.83;6.80;;;;;;;2.53;100.00;95384.47;5050340;28;20277;-74
2022/01/19 11:18:37;;;;;;;7.53;6.07;;;;;;;2.57;100.00;95389.84;5051152;28;20210;-74
2022/01/19 11:21:30;;;;;;;8.83;6.63;;;;;;;2.62;100.00;95384.03;5058733;28;20193;-74
2022/01/19 11:24:35;;;;;;;11.13;6.67;;;;;;;3.29;100.00;95376.25;5073424;28;20323;-74
2022/01/19 11:27:22;;;;;;;21.33;8.10;;;;;;;3.32;100.00;95365.44;5033905;28;20225;-75
2022/01/19 11:30:18;;;;;;;44.83;12.07;;;;;;;3.19;98.30;95358.97;5031817;28;20183;-74
2022/01/19 11:33:16;;;;;;;16.63;6.40;;;;;;;3.67;93.88;95354.28;5034545;28;20187;-74
2022/01/19 11:36:05;;;;;;;6.80;4.83;;;;;;;3.84;90.16;95344.44;5066582;28;20777;-74
2022/01/19 11:39:11;;;;;;;5.37;4.87;;;;;;;3.72;89.96;95340.34;5059576;28;20298;-74
2022/01/19 11:42:00;;;;;;;5.57;4.27;;;;;;;3.93;87.89;95344.75;5054965;28;20185;-74
2022/01/19 11:44:47;;;;;;;8.23;5.07;;;;;;;3.50;88.12;95347.13;5072845;28;20194;-75
2022/01/19 11:47:33;;;;;;;6.40;4.30;;;;;;;3.31;89.42;95333.44;5033279;28;20703;-74
2022/01/19 11:50:20;;;;;;;5.23;4.10;;;;;;;3.15;88.52;95322.38;5018801;28;20198;-74
2022/01/19 11:53:11;;;;;;;6.00;4.17;;;;;;;3.11;89.12;95327.03;5031524;28;20198;-74
2022/01/19 11:56:08;;;;;;;6.67;4.23;;;;;;;3.17;90.09;95323.50;5033291;28;20202;-74
2022/01/19 11:59:07;;;;;;;5.03;4.10;;;;;;;3.26;88.21;95331.91;5070099;28;20206;-74
2022/01/19 12:02:13;;;;;;;7.17;4.20;;;;;;;3.44;88.15;95315.56;5073490;28;20200;-74
2022/01/19 12:05:13;;;;;;;5.20;4.17;;;;;;;3.69;87.49;95332.28;5069322;28;20201;-74
2022/01/19 12:08:10;;;;;;;4.27;3.87;;;;;;;3.68;86.06;95320.69;5068798;28;20210;-74
2022/01/19 12:11:16;;;;;;;8.80;4.23;;;;;;;3.61;85.60;95304.56;5073412;28;20577;-74
2022/01/19 12:14:13;;;;;;;10.80;4.33;;;;;;;3.84;85.90;95314.72;5065026;28;20198;-74
2022/01/19 12:17:25;;;;;;;9.40;4.67;;;;;;;3.86;86.85;95296.19;5038087;28;20237;-74
2022/01/19 12:20:08;;;;;;;4.83;3.77;;;;;;;3.81;87.02;95295.88;5031435;28;20278;-74
2022/01/19 12:23:43;;;;;;;8.00;4.17;;;;;;;3.82;86.08;95292.00;5033201;28;20203;-74
2022/01/19 12:26:51;;;;;;;5.27;3.90;;;;;;;4.08;85.43;95285.88;5031876;28;20209;-74
2022/01/19 12:29:38;;;;;;;5.07;3.80;;;;;;;4.19;84.27;95281.13;5022984;28;20247;-74
2022/01/19 12:32:27;;;;;;;6.40;3.57;;;;;;;4.36;84.25;95266.59;5052732;28;20202;-74
2022/01/19 12:35:16;;;;;;;12.37;4.57;;;;;;;4.53;86.42;95270.97;5049053;28;21500;-75
2022/01/19 12:38:07;;;;;;;11.40;4.27;;;;;;;4.45;87.98;95258.72;5030538;28;20209;-74
2022/01/19 12:40:57;;;;;;;4.57;3.60;;;;;;;4.30;89.68;95262.78;5043580;28;20209;-74
2022/01/19 12:43:44;;;;;;;5.37;4.20;;;;;;;4.50;90.91;95253.63;5051699;28;20207;-74
2022/01/19 12:46:37;;;;;;;6.33;3.87;;;;;;;4.59;88.62;95250.41;5060633;28;20217;-74
2022/01/19 12:49:29;;;;;;;6.60;4.20;;;;;;;4.35;89.00;95243.41;5055709;28;20244;-74
2022/01/19 12:52:15;;;;;;;4.50;3.23;;;;;;;4.34;90.72;95245.38;5050361;28;20193;-74
2022/01/19 12:55:14;;;;;;;4.50;3.40;;;;;;;4.39;90.75;95241.44;5031052;28;20203;-74
2022/01/19 12:58:01;;;;;;;6.97;4.37;;;;;;;4.64;87.51;95225.59;5016088;28;20276;-74
2022/01/19 13:00:50;;;;;;;5.20;4.00;;;;;;;5.01;79.70;95232.69;5003821;28;20253;-74
2022/01/19 13:03:44;;;;;;;8.43;4.00;;;;;;;5.07;82.00;95223.72;5046570;28;20312;-74
2022/01/19 13:06:33;;;;;;;8.87;4.17;;;;;;;5.14;79.89;95223.59;5032348;28;20194;-74
2022/01/19 13:09:26;;;;;;;8.90;4.37;;;;;;;5.56;74.87;95205.75;5055930;28;20301;-74
2022/01/19 13:12:15;;;;;;;7.57;3.90;;;;;;;5.31;80.39;95205.47;5030807;28;20195;-74
2022/01/19 13:15:01;;;;;;;8.30;4.53;;;;;;;5.23;79.62;95206.78;5015760;28;20201;-74
2022/01/19 13:17:50;;;;;;;4.57;3.70;;;;;;;5.40;77.68;95195.63;5033904;28;20226;-74
2022/01/19 13:20:36;;;;;;;6.43;4.10;;;;;;;5.50;76.77;95191.16;5034917;28;20194;-74
2022/01/19 13:23:24;;;;;;;7.43;4.83;;;;;;;5.49;76.85;95198.53;5051556;28;20286;-74
2022/01/19 13:26:10;;;;;;;5.60;3.80;;;;;;;5.65;74.03;95190.47;5036338;28;20769;-74
2022/01/19 13:28:56;;;;;;;3.70;3.17;;;;;;;5.90;69.83;95198.91;5036629;28;20218;-74
2022/01/19 13:31:54;;;;;;;6.33;2.70;;;;;;;6.03;67.54;95196.28;5051261;28;20195;-74
2022/01/19 13:34:59;;;;;;;4.40;3.30;;;;;;;6.07;66.12;95178.75;5036403;28;20205;-74
2022/01/19 13:37:55;;;;;;;6.27;2.90;;;;;;;6.02;65.63;95176.53;5052043;28;20244;-74
2022/01/19 13:40:40;;;;;;;5.40;3.03;;;;;;;6.11;63.63;95189.50;5055599;28;20259;-74
2022/01/19 13:43:26;;;;;;;4.83;2.50;;;;;;;6.19;63.75;95174.63;5066140;28;20191;-74
2022/01/19 13:46:21;;;;;;;5.63;2.80;;;;;;;6.03;63.75;95175.38;5036543;28;20197;-74
2022/01/19 13:49:07;;;;;;;4.07;3.00;;;;;;;6.17;63.73;95162.66;5054074;28;20701;-74
2022/01/19 13:51:53;;;;;;;3.83;2.50;;;;;;;6.32;61.83;95169.28;5070939;28;20272;-74
2022/01/19 13:54:40;;;;;;;8.60;2.70;;;;;;;6.22;62.21;95165.66;5054001;28;20655;-75
2022/01/19 13:57:29;;;;;;;3.30;2.50;;;;;;;6.34;61.22;95164.97;5054771;28;20214;-74
2022/01/19 14:00:20;;;;;;;5.63;2.60;;;;;;;6.33;60.46;95163.44;5032920;28;20218;-74
2022/01/19 14:03:06;;;;;;;3.87;2.67;;;;;;;6.22;60.80;95145.88;5031170;28;20190;-74
2022/01/19 14:05:54;;;;;;;2.77;2.20;;;;;;;6.28;60.85;95158.53;5044723;28;20213;-74
2022/01/19 14:08:40;;;;;;;4.37;2.37;;;;;;;6.35;59.54;95160.31;5037517;28;20261;-74
2022/01/19 14:11:26;;;;;;;3.70;2.70;;;;;;;6.34;59.93;95158.78;5071723;28;20259;-74
2022/01/19 14:14:25;;;;;;;3.60;2.53;;;;;;;6.33;59.90;95158.00;5040953;28;20217;-74
2022/01/19 14:17:22;;;;;;;4.13;2.47;;;;;;;6.38;58.90;95154.78;5041709;28;20276;-74
2022/01/19 14:20:22;;;;;;;3.67;2.57;;;;;;;6.36;58.71;95154.47;5057657;28;20190;-74
2022/01/19 14:23:12;;;;;;;3.60;2.53;;;;;;;6.22;59.51;95152.09;5050617;28;20691;-74
2022/01/19 14:26:10;;;;;;;4.97;2.10;;;;;;;6.19;59.60;95152.94;5053460;28;20664;-75
2022/01/19 14:29:11;;;;;;;3.60;2.67;;;;;;;6.22;58.72;95156.75;5069863;28;20226;-75
2022/01/19 14:31:59;;;;;;;5.50;2.50;;;;;;;6.15;58.79;95154.97;5054981;28;20871;-74
2022/01/19 14:34:45;;;;;;;5.30;2.83;;;;;;;6.17;57.94;95146.41;5067553;28;20194;-74
2022/01/19 14:37:31;;;;;;;2.53;2.30;;;;;;;6.13;58.55;95148.44;5070381;28;20209;-75
2022/01/19 14:40:17;;;;;;;6.10;3.13;;;;;;;6.02;58.69;95137.84;5052174;28;20197;-74
2022/01/19 14:43:11;;;;;;;3.43;2.60;;;;;;;6.11;58.83;95148.84;5070519;28;20194;-74
2022/01/19 14:46:05;;;;;;;3.30;2.90;;;;;;;5.97;58.75;95152.63;5069819;28;20197;-74
2022/01/19 14:48:52;;;;;;;3.27;2.63;;;;;;;5.93;58.57;95148.47;5046621;28;20223;-74